Time;durP1;ratioP1;P1;durP2;ratioP2;P2;SDS_P1;SDS_P2;PMS_P1;PMS_P2;Temp;Humidity;BMP_temperature;BMP_pressure;BME280_temperature;BME280_humidity;BME280_pressure;Samples;Min_cycle;Max_cycle;Signal;HPM_P1;HPM_P2
2023/05/26 00:02:19;;;;;;;34.60;15.30;;;;;;;9.31;99.89;100323.03;5099339;28;20039;-62
2023/05/26 00:04:52;;;;;;;33.08;14.55;;;;;;;9.20;100.00;100313.78;5101049;28;20069;-62
2023/05/26 00:07:19;;;;;;;30.15;15.75;;;;;;;9.41;100.00;100314.56;5102898;28;20180;-62
2023/05/26 00:09:53;;;;;;;29.52;14.95;;;;;;;9.42;99.47;100321.59;5098254;28;20040;-61
2023/05/26 00:12:20;;;;;;;37.40;14.52;;;;;;;9.43;100.00;100317.88;5097552;28;20124;-62
2023/05/26 00:14:55;;;;;;;28.27;14.38;;;;;;;9.41;100.00;100309.22;5086700;28;20047;-62
2023/05/26 00:17:25;;;;;;;30.23;14.57;;;;;;;9.21;100.00;100302.06;5100794;28;20058;-62
2023/05/26 00:19:59;;;;;;;36.28;14.20;;;;;;;9.14;99.65;100314.63;5105057;28;20039;-62
2023/05/26 00:22:27;;;;;;;32.13;14.88;;;;;;;9.18;100.00;100310.47;5104119;28;20047;-62
2023/05/26 00:24:54;;;;;;;34.45;14.95;;;;;;;9.35;100.00;100302.03;5101333;28;20396;-62
2023/05/26 00:27:21;;;;;;;34.38;15.50;;;;;;;9.23;99.85;100302.66;5100699;28;20047;-62
2023/05/26 00:29:52;;;;;;;36.05;15.73;;;;;;;9.39;100.00;100301.41;5085541;28;20509;-62
2023/05/26 00:32:20;;;;;;;33.75;14.45;;;;;;;9.23;100.00;100308.00;5073513;28;20445;-62
2023/05/26 00:34:47;;;;;;;27.52;13.85;;;;;;;8.93;100.00;100296.09;5100961;28;20151;-62
2023/05/26 00:37:16;;;;;;;33.53;14.65;;;;;;;8.87;100.00;100302.28;5102708;28;20043;-62
2023/05/26 00:39:47;;;;;;;28.83;14.10;;;;;;;8.68;100.00;100310.06;5097907;28;20044;-63
2023/05/26 00:42:14;;;;;;;34.45;13.50;;;;;;;8.52;100.00;100311.25;5081284;28;20046;-62
2023/05/26 00:44:42;;;;;;;29.45;13.52;;;;;;;8.31;100.00;100304.22;5101419;28;20050;-62
2023/05/26 00:47:11;;;;;;;25.52;12.02;;;;;;;8.07;100.00;100313.56;5106714;28;20051;-62
2023/05/26 00:49:39;;;;;;;29.92;14.23;;;;;;;8.27;100.00;100318.16;5101091;28;20550;-62
2023/05/26 00:52:06;;;;;;;38.95;14.32;;;;;;;8.48;100.00;100318.03;5106802;28;20490;-62
2023/05/26 00:54:35;;;;;;;28.35;13.65;;;;;;;8.32;100.00;100311.19;5081819;28;20138;-62
2023/05/26 00:57:03;;;;;;;30.73;14.05;;;;;;;8.23;100.00;100306.22;5080369;28;20039;-62
2023/05/26 00:59:31;;;;;;;31.35;14.10;;;;;;;8.13;100.00;100302.06;5101578;28;20063;-62
2023/05/26 01:02:00;;;;;;;29.10;13.85;;;;;;;8.08;100.00;100309.03;5106021;28;20040;-62
2023/05/26 01:04:29;;;;;;;37.07;14.97;;;;;;;8.13;100.00;100309.25;5089246;28;20100;-62
2023/05/26 01:07:02;;;;;;;41.70;15.93;;;;;;;8.16;100.00;100306.19;5094957;28;20304;-62
2023/05/26 01:09:30;;;;;;;42.30;15.90;;;;;;;8.05;100.00;100304.09;5103605;28;20123;-62
2023/05/26 01:12:19;;;;;;;36.17;15.85;;;;;;;8.22;100.00;100313.41;5103513;28;20039;-62
2023/05/26 01:14:54;;;;;;;35.50;15.40;;;;;;;8.21;100.00;100317.09;5087751;28;20097;-62
2023/05/26 01:17:29;;;;;;;35.47;16.23;;;;;;;8.37;100.00;100313.25;5078277;28;20075;-62
2023/05/26 01:20:12;;;;;;;29.85;14.82;;;;;;;8.50;100.00;100307.16;5096751;28;20042;-62
2023/05/26 01:23:13;;;;;;;35.55;15.15;;;;;;;8.38;100.00;100318.38;5084854;28;20039;-62
2023/05/26 01:25:57;;;;;;;35.42;15.40;;;;;;;8.38;100.00;100318.38;5093327;28;20040;-62
2023/05/26 01:28:27;;;;;;;38.47;15.55;;;;;;;8.43;100.00;100310.63;5094615;28;20044;-62
2023/05/26 01:30:54;;;;;;;37.80;15.75;;;;;;;8.43;100.00;100307.94;5105714;28;20043;-62
2023/05/26 01:33:22;;;;;;;36.60;15.85;;;;;;;8.39;100.00;100306.72;5099042;28;20520;-63
2023/05/26 01:35:49;;;;;;;30.67;15.48;;;;;;;8.35;100.00;100310.78;5104930;28;20048;-62
2023/05/26 01:38:21;;;;;;;31.00;15.77;;;;;;;8.49;100.00;100300.16;5080919;28;20113;-61
2023/05/26 01:40:51;;;;;;;39.05;16.05;;;;;;;8.47;100.00;100302.22;5080088;28;20478;-61
2023/05/26 01:43:21;;;;;;;31.55;14.68;;;;;;;8.58;100.00;100306.94;5062415;28;20051;-61
2023/05/26 01:45:53;;;;;;;33.90;14.27;;;;;;;8.18;100.00;100309.50;5102256;28;20047;-62
2023/05/26 01:48:20;;;;;;;32.75;14.43;;;;;;;7.55;100.00;100305.09;5102116;28;20042;-62
2023/05/26 01:50:51;;;;;;;38.60;15.73;;;;;;;8.03;100.00;100311.50;5098286;28;20358;-62
2023/05/26 01:53:19;;;;;;;32.78;15.25;;;;;;;8.25;100.00;100309.53;5084243;28;20039;-62
2023/05/26 01:55:52;;;;;;;33.92;15.43;;;;;;;8.25;100.00;100306.84;5102053;28;20054;-62
2023/05/26 01:58:19;;;;;;;31.13;13.40;;;;;;;8.04;100.00;100313.97;5098406;28;20040;-62
2023/05/26 02:00:49;;;;;;;38.67;15.20;;;;;;;8.02;100.00;100305.34;5101597;28;20085;-62
2023/05/26 02:03:16;;;;;;;36.53;15.43;;;;;;;8.01;100.00;100317.00;5100247;28;20538;-62
2023/05/26 02:05:43;;;;;;;34.25;15.15;;;;;;;8.25;100.00;100301.50;5083637;28;20066;-62
2023/05/26 02:08:13;;;;;;;33.05;14.98;;;;;;;8.21;100.00;100304.59;5072164;28;20128;-62
2023/05/26 02:10:41;;;;;;;33.70;15.23;;;;;;;7.99;100.00;100309.22;5090253;28;20044;-62
2023/05/26 02:13:08;;;;;;;35.83;15.63;;;;;;;8.02;100.00;100304.50;5105016;28;20051;-62
2023/05/26 02:15:36;;;;;;;34.28;14.35;;;;;;;7.89;100.00;100308.78;5083932;28;22200;-62
2023/05/26 02:18:05;;;;;;;31.92;13.90;;;;;;;7.90;100.00;100313.06;5087324;28;20086;-62
2023/05/26 02:20:32;;;;;;;32.72;14.30;;;;;;;8.08;100.00;100298.38;5066905;28;20055;-62
2023/05/26 02:23:00;;;;;;;30.88;15.07;;;;;;;7.87;100.00;100305.47;5067092;28;20051;-62
2023/05/26 02:25:28;;;;;;;27.15;14.27;;;;;;;7.59;100.00;100302.88;5098084;28;20082;-62
2023/05/26 02:27:55;;;;;;;24.83;13.68;;;;;;;7.57;100.00;100300.38;5074853;28;20075;-61
2023/05/26 02:30:22;;;;;;;30.60;14.75;;;;;;;7.95;100.00;100299.94;5077201;28;20052;-62
2023/05/26 02:32:53;;;;;;;30.60;15.18;;;;;;;7.97;100.00;100303.25;5100893;28;20043;-61
2023/05/26 02:35:23;;;;;;;32.20;15.32;;;;;;;7.98;100.00;100312.09;5086071;28;20048;-62
2023/05/26 02:37:55;;;;;;;27.17;14.77;;;;;;;8.05;100.00;100304.94;5088313;28;20042;-62
2023/05/26 02:40:22;;;;;;;42.13;16.35;;;;;;;8.33;100.00;100306.66;5101876;28;20040;-62
2023/05/26 02:42:51;;;;;;;32.50;14.80;;;;;;;8.28;100.00;100301.91;5103421;28;20131;-62
2023/05/26 02:45:24;;;;;;;33.80;14.20;;;;;;;8.29;100.00;100300.09;5099344;28;20048;-62
2023/05/26 02:47:54;;;;;;;31.70;14.07;;;;;;;8.21;100.00;100287.72;5080992;28;20127;-62
2023/05/26 02:50:23;;;;;;;30.65;13.70;;;;;;;8.15;100.00;100300.03;5083868;28;20055;-62
2023/05/26 02:52:53;;;;;;;31.42;13.45;;;;;;;7.93;100.00;100296.66;5079554;28;20050;-62
2023/05/26 02:55:21;;;;;;;25.43;13.60;;;;;;;7.77;100.00;100299.69;5094367;28;20044;-62
2023/05/26 02:57:49;;;;;;;30.13;13.90;;;;;;;7.79;100.00;100289.63;5096559;28;20303;-62
2023/05/26 03:00:17;;;;;;;24.67;14.35;;;;;;;7.92;100.00;100300.34;5095155;28;20039;-62
2023/05/26 03:02:47;;;;;;;31.25;14.95;;;;;;;7.77;100.00;100294.34;5096781;28;20056;-62
2023/05/26 03:05:22;;;;;;;28.48;14.88;;;;;;;7.83;100.00;100293.53;5089089;28;20123;-61
2023/05/26 03:07:52;;;;;;;28.40;14.20;;;;;;;7.63;100.00;100295.28;5083498;28;20043;-62
2023/05/26 03:10:20;;;;;;;23.30;13.38;;;;;;;7.44;100.00;100297.66;5101109;28;20052;-62
2023/05/26 03:12:48;;;;;;;27.85;11.82;;;;;;;7.41;100.00;100287.34;5068861;28;20109;-62
2023/05/26 03:15:15;;;;;;;27.20;14.95;;;;;;;7.74;100.00;100286.72;5101459;28;20423;-61
2023/05/26 03:17:42;;;;;;;28.85;14.32;;;;;;;7.98;100.00;100294.22;5081504;28;20047;-61
2023/05/26 03:20:11;;;;;;;30.25;14.05;;;;;;;7.90;100.00;100297.06;5081418;28;20042;-62
2023/05/26 03:22:41;;;;;;;26.50;13.80;;;;;;;7.99;100.00;100297.72;5100029;28;20071;-64
2023/05/26 03:25:10;;;;;;;29.13;13.30;;;;;;;7.78;100.00;100301.31;5060702;28;20044;-64
2023/05/26 03:27:44;;;;;;;29.10;13.20;;;;;;;7.76;100.00;100303.34;5068841;28;20047;-63
2023/05/26 03:30:12;;;;;;;28.88;13.82;;;;;;;7.84;100.00;100297.88;5095390;28;20052;-64
2023/05/26 03:32:42;;;;;;;27.50;13.85;;;;;;;7.91;100.00;100298.72;5079533;28;20052;-63
2023/05/26 03:35:10;;;;;;;32.67;14.80;;;;;;;7.91;100.00;100303.22;5095595;28;20044;-64
2023/05/26 03:37:41;;;;;;;25.35;12.55;;;;;;;7.99;100.00;100309.22;5079592;28;20040;-64
2023/05/26 03:40:10;;;;;;;27.27;13.13;;;;;;;8.01;100.00;100303.66;5101626;28;20039;-63
2023/05/26 03:42:39;;;;;;;26.75;13.30;;;;;;;8.09;100.00;100308.03;5072133;28;20036;-63
2023/05/26 03:45:08;;;;;;;23.75;12.75;;;;;;;8.11;100.00;100308.63;5076013;28;20393;-63
2023/05/26 03:47:35;;;;;;;24.48;12.85;;;;;;;8.24;100.00;100313.19;5081228;28;20122;-63
2023/05/26 03:50:02;;;;;;;25.60;13.77;;;;;;;8.48;100.00;100307.34;5098593;28;20093;-63
2023/05/26 03:52:29;;;;;;;24.35;11.98;;;;;;;8.53;100.00;100306.75;5095346;28;20048;-63
2023/05/26 03:54:58;;;;;;;21.92;12.85;;;;;;;8.72;100.00;100305.94;5102054;28;20096;-63
2023/05/26 03:57:25;;;;;;;26.48;12.40;;;;;;;8.88;100.00;100309.25;5090899;28;20055;-63
2023/05/26 03:59:56;;;;;;;24.23;12.05;;;;;;;9.10;100.00;100304.53;5063904;28;21084;-63
2023/05/26 04:02:24;;;;;;;26.85;12.60;;;;;;;9.14;100.00;100306.59;5085218;28;20047;-63
2023/05/26 04:04:58;;;;;;;21.30;11.70;;;;;;;9.71;96.77;100310.41;5076894;28;20699;-63
2023/05/26 04:07:26;;;;;;;23.98;10.93;;;;;;;9.93;94.83;100305.59;5088033;28;20127;-63
2023/05/26 04:09:55;;;;;;;22.55;11.77;;;;;;;10.06;93.06;100301.19;5098809;28;20776;-63
2023/05/26 04:12:24;;;;;;;24.38;10.48;;;;;;;10.37;92.71;100300.47;5084330;28;20047;-63
2023/05/26 04:14:55;;;;;;;27.52;11.05;;;;;;;10.58;91.20;100300.16;5101706;28;20409;-63
2023/05/26 04:17:26;;;;;;;20.08;10.52;;;;;;;11.22;86.01;100302.75;5083530;28;20556;-63
2023/05/26 04:19:59;;;;;;;19.45;9.88;;;;;;;11.45;84.72;100299.41;5087337;28;20520;-63
2023/05/26 04:22:26;;;;;;;27.80;11.43;;;;;;;11.67;84.39;100294.44;5090366;28;20063;-63
2023/05/26 04:24:58;;;;;;;22.90;9.48;;;;;;;12.28;79.01;100298.91;5104763;28;20182;-63
2023/05/26 04:27:42;;;;;;;18.25;8.98;;;;;;;12.27;78.17;100297.25;5099206;28;20044;-63
2023/05/26 04:30:39;;;;;;;31.87;9.83;;;;;;;12.21;80.22;100308.91;5102323;28;20067;-63
2023/05/26 04:33:34;;;;;;;30.33;9.25;;;;;;;12.97;76.99;100320.03;5092978;28;20036;-63
2023/05/26 04:36:16;;;;;;;43.03;9.88;;;;;;;12.29;78.88;100322.03;5097995;28;20040;-63
2023/05/26 04:38:47;;;;;;;44.78;10.35;;;;;;;12.13;78.82;100314.63;5084914;28;20052;-63
2023/05/26 04:41:16;;;;;;;40.58;9.40;;;;;;;13.59;73.64;100317.75;5065386;28;20047;-63
2023/05/26 04:43:46;;;;;;;39.97;9.85;;;;;;;12.85;76.23;100320.00;5085411;28;20051;-63
2023/05/26 04:46:15;;;;;;;23.00;9.57;;;;;;;13.43;74.91;100325.69;5085870;28;20133;-63
2023/05/26 04:48:43;;;;;;;23.93;8.53;;;;;;;13.30;76.04;100341.03;5079980;28;20081;-63
2023/05/26 04:51:10;;;;;;;21.83;8.95;;;;;;;12.19;79.06;100343.25;5084263;28;20046;-63
2023/05/26 04:53:37;;;;;;;20.33;8.85;;;;;;;13.36;72.54;100336.59;5090697;28;20059;-63
2023/05/26 04:56:06;;;;;;;23.00;7.85;;;;;;;14.56;69.12;100334.28;5085169;28;20499;-64
2023/05/26 04:58:39;;;;;;;18.25;8.23;;;;;;;15.57;69.36;100331.59;5076891;28;20139;-63
2023/05/26 05:01:08;;;;;;;29.13;8.55;;;;;;;15.91;61.54;100336.97;5101628;28;20112;-63
2023/05/26 05:04:01;;;;;;;17.92;7.75;;;;;;;14.58;66.94;100326.78;5079351;28;20075;-63
2023/05/26 05:06:30;;;;;;;19.17;8.20;;;;;;;15.43;65.55;100330.34;5078691;28;20048;-63
2023/05/26 05:08:57;;;;;;;19.15;8.40;;;;;;;14.29;68.50;100334.81;5079800;28;20036;-62
2023/05/26 05:11:27;;;;;;;19.98;8.07;;;;;;;15.93;64.77;100337.53;5105065;28;20130;-63
2023/05/26 05:13:55;;;;;;;21.45;8.38;;;;;;;15.66;63.07;100335.53;5068377;28;20122;-63
2023/05/26 05:16:24;;;;;;;19.25;8.50;;;;;;;16.34;61.55;100343.44;5082738;28;20036;-64
2023/05/26 05:18:51;;;;;;;21.23;8.38;;;;;;;16.24;62.66;100346.84;5088165;28;20035;-63
2023/05/26 05:21:27;;;;;;;16.67;7.70;;;;;;;16.99;57.72;100356.03;5082387;28;20135;-63
2023/05/26 05:24:01;;;;;;;17.50;7.93;;;;;;;15.65;65.17;100349.28;5084655;28;20042;-63
2023/05/26 05:26:29;;;;;;;20.42;7.95;;;;;;;17.30;57.95;100350.03;5079610;28;20047;-63
2023/05/26 05:29:01;;;;;;;22.70;8.15;;;;;;;16.00;61.69;100342.75;5081562;28;20110;-63
2023/05/26 05:31:40;;;;;;;20.20;8.18;;;;;;;16.71;59.42;100357.09;5077591;28;20185;-63
2023/05/26 05:34:08;;;;;;;28.08;8.38;;;;;;;17.32;57.45;100364.16;5082054;28;20485;-62
2023/05/26 05:36:35;;;;;;;21.95;7.95;;;;;;;17.69;56.11;100366.84;5101746;28;20040;-62
2023/05/26 05:39:03;;;;;;;18.55;7.53;;;;;;;16.86;57.41;100374.59;5083137;28;20102;-62
2023/05/26 05:41:30;;;;;;;19.08;8.02;;;;;;;17.74;56.03;100376.91;5083037;28;20066;-62
2023/05/26 05:43:58;;;;;;;21.42;7.88;;;;;;;17.05;57.00;100386.69;5078980;28;20051;-62
2023/05/26 05:46:27;;;;;;;17.10;8.43;;;;;;;16.73;60.41;100383.91;5104048;28;20549;-62
2023/05/26 05:49:14;;;;;;;20.20;7.38;;;;;;;16.88;59.59;100383.28;5094936;28;20185;-61
2023/05/26 05:51:48;;;;;;;23.98;8.20;;;;;;;16.76;59.15;100388.81;5082082;28;20651;-62
2023/05/26 05:54:26;;;;;;;26.38;7.63;;;;;;;16.79;58.39;100388.31;5085193;28;20404;-62
2023/05/26 05:56:57;;;;;;;17.98;7.85;;;;;;;15.97;60.78;100387.31;5078332;28;20089;-62
2023/05/26 05:59:26;;;;;;;20.65;7.93;;;;;;;16.36;61.22;100387.28;5085417;28;20109;-62
2023/05/26 06:01:59;;;;;;;22.13;7.78;;;;;;;15.98;61.74;100388.16;5084362;28;20043;-62
2023/05/26 06:04:29;;;;;;;22.88;8.10;;;;;;;16.81;59.73;100391.59;5101510;28;20039;-61
2023/05/26 06:07:01;;;;;;;24.17;8.00;;;;;;;14.96;65.13;100392.75;5101849;28;20397;-62
2023/05/26 06:09:29;;;;;;;21.15;7.90;;;;;;;15.45;64.57;100390.31;5104815;28;20125;-62
2023/05/26 06:12:00;;;;;;;23.42;7.97;;;;;;;14.67;67.53;100412.44;5096782;28;20051;-62
2023/05/26 06:14:27;;;;;;;24.23;8.20;;;;;;;16.99;59.21;100407.47;5099780;28;20123;-62
2023/05/26 06:16:57;;;;;;;30.90;8.35;;;;;;;18.11;57.04;100412.94;5096877;28;20063;-62
2023/05/26 06:19:28;;;;;;;27.17;7.80;;;;;;;18.17;55.61;100410.25;5077550;28;20276;-61
2023/05/26 06:21:56;;;;;;;20.30;8.27;;;;;;;16.27;59.79;100410.44;5092565;28;20466;-62
2023/05/26 06:24:26;;;;;;;24.65;8.77;;;;;;;14.78;66.52;100416.19;5089049;28;20059;-62
2023/05/26 06:27:00;;;;;;;23.90;8.63;;;;;;;15.04;66.57;100405.84;5064101;28;20047;-62
2023/05/26 06:29:27;;;;;;;28.88;8.30;;;;;;;16.58;60.07;100404.31;5084138;28;20036;-62
2023/05/26 06:31:58;;;;;;;21.45;8.20;;;;;;;17.15;57.33;100415.78;5096469;28;20054;-62
2023/05/26 06:34:30;;;;;;;27.23;8.77;;;;;;;18.13;54.93;100409.16;5096829;28;20059;-61
2023/05/26 06:36:58;;;;;;;23.33;8.13;;;;;;;17.75;56.05;100417.31;5093729;28;20481;-62
2023/05/26 06:39:25;;;;;;;21.75;7.90;;;;;;;17.15;57.54;100413.88;5079105;28;20039;-61
2023/05/26 06:41:56;;;;;;;22.25;8.38;;;;;;;17.32;57.86;100412.91;5078727;28;20406;-62
2023/05/26 06:44:24;;;;;;;23.75;8.00;;;;;;;18.59;54.84;100406.63;5084290;28;20055;-61
2023/05/26 06:46:51;;;;;;;25.75;8.10;;;;;;;18.94;51.80;100416.78;5097422;28;20139;-62
2023/05/26 06:49:27;;;;;;;26.20;7.57;;;;;;;18.16;53.87;100423.00;5073657;28;20051;-62
2023/05/26 06:52:00;;;;;;;19.92;7.93;;;;;;;18.47;53.39;100412.28;5078154;28;20409;-62
2023/05/26 06:54:28;;;;;;;28.63;7.53;;;;;;;17.08;56.39;100415.16;5083626;28;20040;-61
2023/05/26 06:56:56;;;;;;;30.55;8.27;;;;;;;18.73;55.21;100416.72;5088158;28;20132;-61
2023/05/26 06:59:23;;;;;;;30.75;7.40;;;;;;;20.15;49.28;100418.94;5064911;28;20141;-61
2023/05/26 07:01:51;;;;;;;28.60;8.40;;;;;;;19.82;50.36;100415.75;5092948;28;20047;-61
2023/05/26 07:04:18;;;;;;;24.70;8.13;;;;;;;19.09;50.94;100430.38;5080159;28;20101;-62
2023/05/26 07:06:47;;;;;;;28.00;7.75;;;;;;;18.63;53.44;100426.75;5105397;28;20043;-61
2023/05/26 07:09:16;;;;;;;26.40;7.93;;;;;;;19.82;50.72;100423.91;5084989;28;20071;-62
2023/05/26 07:12:02;;;;;;;32.53;7.72;;;;;;;20.39;51.42;100430.81;5093856;28;20262;-61
2023/05/26 07:14:51;;;;;;;29.23;7.68;;;;;;;21.25;48.21;100431.44;5087528;28;20085;-61
2023/05/26 07:17:19;;;;;;;28.52;8.68;;;;;;;20.24;48.88;100428.97;5072104;28;21772;-61
2023/05/26 07:19:50;;;;;;;35.53;8.80;;;;;;;21.53;46.34;100432.59;5086377;28;20513;-61
2023/05/26 07:22:19;;;;;;;28.45;7.90;;;;;;;21.53;45.33;100434.50;5089274;28;20073;-62
2023/05/26 07:24:59;;;;;;;34.95;8.18;;;;;;;18.97;51.14;100421.72;5066993;28;20032;-61
2023/05/26 07:27:39;;;;;;;38.58;9.60;;;;;;;21.16;47.66;100424.94;5091499;28;20047;-61
2023/05/26 07:30:08;;;;;;;32.83;8.90;;;;;;;19.76;49.75;100433.16;5099392;28;20044;-61
2023/05/26 07:32:42;;;;;;;35.15;8.20;;;;;;;21.14;47.82;100426.34;5102649;28;20102;-61
2023/05/26 07:35:09;;;;;;;34.72;8.90;;;;;;;20.73;49.07;100419.25;5081901;28;20035;-61
2023/05/26 07:37:36;;;;;;;34.05;8.70;;;;;;;21.05;47.52;100423.41;5103917;28;20052;-62
2023/05/26 07:40:06;;;;;;;29.55;9.50;;;;;;;20.81;46.87;100415.09;5100394;28;20107;-61
2023/05/26 07:42:33;;;;;;;26.88;8.70;;;;;;;22.41;45.32;100413.41;5100011;28;21092;-61
2023/05/26 07:45:01;;;;;;;32.97;9.23;;;;;;;21.50;45.37;100416.00;5100223;28;20070;-62
2023/05/26 07:47:31;;;;;;;32.38;8.48;;;;;;;20.17;49.20;100412.13;5101147;28;20130;-61
2023/05/26 07:49:58;;;;;;;39.72;9.52;;;;;;;21.26;46.75;100415.88;5099896;28;20042;-62
2023/05/26 07:52:25;;;;;;;31.92;8.40;;;;;;;21.01;46.99;100408.72;5101398;28;20036;-61
2023/05/26 07:54:52;;;;;;;35.22;8.45;;;;;;;21.73;46.55;100408.97;5104436;28;20123;-61
2023/05/26 07:57:21;;;;;;;34.65;8.48;;;;;;;21.76;46.02;100406.44;5086117;28;20123;-61
2023/05/26 07:59:48;;;;;;;26.17;8.30;;;;;;;20.47;48.24;100405.72;5101120;28;20108;-61
2023/05/26 08:02:15;;;;;;;33.63;8.82;;;;;;;21.66;47.17;100409.28;5098951;28;20096;-61
2023/05/26 08:04:42;;;;;;;35.83;8.77;;;;;;;21.86;45.63;100408.25;5081463;28;20048;-61
2023/05/26 08:07:09;;;;;;;44.90;9.75;;;;;;;22.09;44.89;100403.94;5105222;28;20093;-61
2023/05/26 08:09:36;;;;;;;34.08;8.82;;;;;;;21.71;46.89;100406.50;5099520;28;20135;-61
2023/05/26 08:12:03;;;;;;;37.75;8.45;;;;;;;23.28;42.95;100406.72;5082968;28;20048;-61
2023/05/26 08:14:31;;;;;;;37.40;9.00;;;;;;;21.40;46.34;100408.72;5084312;28;20055;-61
2023/05/26 08:16:59;;;;;;;46.88;11.15;;;;;;;20.96;47.40;100412.28;5100866;28;20504;-61
2023/05/26 08:19:26;;;;;;;34.70;8.80;;;;;;;23.20;44.97;100408.22;5101165;28;20040;-62
2023/05/26 08:21:53;;;;;;;42.42;9.93;;;;;;;20.35;48.68;100407.97;5099933;28;20035;-64
2023/05/26 08:24:22;;;;;;;31.48;9.55;;;;;;;21.20;47.14;100408.84;5081844;28;20460;-62
2023/05/26 08:26:50;;;;;;;36.17;9.93;;;;;;;20.58;47.11;100405.72;5107955;28;20537;-62
2023/05/26 08:29:17;;;;;;;41.17;9.32;;;;;;;20.76;49.55;100399.59;5101719;28;20048;-63
2023/05/26 08:31:45;;;;;;;40.00;10.52;;;;;;;19.44;50.85;100396.16;5097966;28;20039;-62
2023/05/26 08:34:12;;;;;;;38.25;9.75;;;;;;;21.19;47.90;100399.03;5100292;28;20100;-62
2023/05/26 08:36:39;;;;;;;40.50;9.75;;;;;;;20.19;49.72;100403.66;5099158;28;20138;-62
2023/05/26 08:39:06;;;;;;;38.85;9.35;;;;;;;19.70;51.40;100407.88;5102593;28;20086;-62
2023/05/26 08:41:37;;;;;;;42.80;10.27;;;;;;;19.80;50.65;100413.28;5091724;28;20101;-61
2023/05/26 08:44:04;;;;;;;35.55;10.23;;;;;;;19.87;51.33;100398.56;5095601;28;20118;-61
2023/05/26 08:46:32;;;;;;;40.08;10.27;;;;;;;19.96;50.47;100399.66;5103059;28;20135;-63
2023/05/26 08:49:00;;;;;;;39.13;9.35;;;;;;;20.34;51.35;100389.97;5100517;28;20044;-63
2023/05/26 08:51:27;;;;;;;39.08;9.25;;;;;;;20.53;50.13;100402.97;5077755;28;20126;-63
2023/05/26 08:53:55;;;;;;;42.22;9.68;;;;;;;19.81;51.73;100392.34;5098462;28;20059;-63
2023/05/26 08:56:22;;;;;;;36.22;10.18;;;;;;;20.17;50.58;100400.41;5081648;28;20489;-61
2023/05/26 08:58:49;;;;;;;37.53;9.40;;;;;;;21.09;49.14;100403.47;5105186;28;20047;-61
2023/05/26 09:01:16;;;;;;;41.33;9.70;;;;;;;20.38;49.78;100401.94;5105248;28;20378;-62
2023/05/26 09:03:43;;;;;;;43.50;9.73;;;;;;;19.62;50.79;100400.25;5102027;28;20500;-61
2023/05/26 09:06:12;;;;;;;43.30;10.38;;;;;;;19.88;50.59;100409.19;5076526;28;20199;-61
2023/05/26 09:08:39;;;;;;;43.38;9.77;;;;;;;20.45;51.75;100407.91;5090673;28;20542;-61
2023/05/26 09:11:22;;;;;;;36.58;10.48;;;;;;;20.71;48.85;100415.16;5096426;28;20048;-62
2023/05/26 09:13:52;;;;;;;42.70;9.88;;;;;;;20.40;49.91;100410.66;5101658;28;20075;-61
2023/05/26 09:16:22;;;;;;;33.75;9.43;;;;;;;20.80;50.39;100403.41;5084797;28;20067;-61
2023/05/26 09:18:49;;;;;;;36.58;10.45;;;;;;;20.38;50.51;100407.41;5102292;28;20512;-61
2023/05/26 09:21:18;;;;;;;37.65;10.25;;;;;;;19.60;51.86;100403.22;5087936;28;20514;-61
2023/05/26 09:23:46;;;;;;;34.00;8.98;;;;;;;20.74;50.21;100404.50;5099288;28;20039;-63
2023/05/26 09:26:15;;;;;;;41.30;10.50;;;;;;;20.60;49.78;100403.53;5096274;28;20544;-62
2023/05/26 09:28:47;;;;;;;48.25;10.05;;;;;;;21.74;47.53;100405.94;5103849;28;20051;-61
2023/05/26 09:31:15;;;;;;;42.70;9.88;;;;;;;21.41;48.63;100409.53;5097242;28;20051;-61
2023/05/26 09:33:45;;;;;;;46.65;9.82;;;;;;;21.18;48.94;100413.78;5096107;28;20048;-61
2023/05/26 09:36:12;;;;;;;36.92;9.52;;;;;;;21.28;48.79;100408.25;5096928;28;20043;-63
2023/05/26 09:38:42;;;;;;;50.05;9.63;;;;;;;20.53;50.34;100409.22;5097594;28;20051;-61
2023/05/26 09:41:08;;;;;;;48.13;9.75;;;;;;;20.52;49.90;100406.78;5100489;28;20048;-61
2023/05/26 09:43:37;;;;;;;50.38;10.85;;;;;;;20.22;51.88;100401.22;5098927;28;20072;-64
2023/05/26 09:46:10;;;;;;;55.05;11.30;;;;;;;20.85;50.71;100402.56;5095175;28;20477;-62
2023/05/26 09:48:37;;;;;;;44.70;10.45;;;;;;;21.11;49.20;100397.72;5097408;28;20146;-61
2023/05/26 09:51:04;;;;;;;43.58;10.32;;;;;;;22.49;47.08;100392.81;5094523;28;20130;-61
2023/05/26 09:53:31;;;;;;;53.78;10.60;;;;;;;20.05;51.79;100398.00;5104400;28;20075;-61
2023/05/26 09:56:01;;;;;;;45.65;9.73;;;;;;;22.43;47.69;100404.94;5100237;28;20122;-61
2023/05/26 09:58:28;;;;;;;53.28;10.70;;;;;;;21.58;48.00;100400.94;5098255;28;20076;-61
2023/05/26 10:00:55;;;;;;;44.00;10.43;;;;;;;22.68;46.17;100398.31;5098576;28;20140;-61
2023/05/26 10:03:22;;;;;;;48.22;10.15;;;;;;;22.16;47.39;100396.19;5099735;28;20123;-61
2023/05/26 10:05:49;;;;;;;37.72;10.07;;;;;;;21.30;48.50;100401.41;5104475;28;20391;-61
2023/05/26 10:08:19;;;;;;;54.58;11.18;;;;;;;22.59;46.85;100401.72;5104904;28;20047;-61
2023/05/26 10:10:46;;;;;;;49.95;10.20;;;;;;;22.34;47.14;100391.09;5096648;28;20052;-62
2023/05/26 10:13:15;;;;;;;35.40;9.27;;;;;;;20.80;51.16;100381.59;5097991;28;20433;-63
2023/05/26 10:15:43;;;;;;;44.72;10.50;;;;;;;21.43;48.91;100397.22;5087366;28;20054;-63
2023/05/26 10:18:10;;;;;;;40.25;10.15;;;;;;;21.54;48.74;100404.22;5096081;28;20131;-63
2023/05/26 10:20:37;;;;;;;41.15;10.50;;;;;;;21.53;48.69;100399.06;5096486;28;20245;-62
2023/05/26 10:23:05;;;;;;;38.83;9.82;;;;;;;21.54;48.85;100401.50;5095553;28;20050;-62
2023/05/26 10:25:34;;;;;;;43.33;10.32;;;;;;;21.18;49.88;100398.22;5093780;28;20048;-62
2023/05/26 10:28:05;;;;;;;39.95;9.30;;;;;;;20.71;50.76;100393.38;5101772;28;20051;-62
2023/05/26 10:30:34;;;;;;;39.88;9.23;;;;;;;21.40;49.92;100388.81;5096325;28;20040;-62
2023/05/26 10:33:08;;;;;;;48.45;10.10;;;;;;;21.86;49.14;100388.34;5092444;28;20071;-63
2023/05/26 10:35:35;;;;;;;36.88;9.30;;;;;;;21.72;48.57;100374.59;5080087;28;20101;-61
2023/05/26 10:38:12;;;;;;;45.28;9.63;;;;;;;20.68;50.90;100378.41;5091394;28;20047;-62
2023/05/26 10:40:42;;;;;;;40.33;9.18;;;;;;;23.21;45.81;100381.66;5097697;28;20467;-62
2023/05/26 10:43:14;;;;;;;;;;;;;;;21.01;48.56;100392.34;5095428;28;20561;-62
2023/05/26 10:45:46;;;;;;;37.33;9.45;;;;;;;20.95;51.64;100377.16;5093076;28;19998;-62
2023/05/26 10:48:13;;;;;;;36.53;9.43;;;;;;;21.59;49.23;100376.09;5089882;28;20473;-62
2023/05/26 10:51:23;;;;;;;44.08;9.68;;;;;;;21.98;47.25;100377.84;5083201;28;20048;-62
2023/05/26 10:53:51;;;;;;;37.90;9.30;;;;;;;20.70;49.14;100373.50;5062375;28;20147;-62
2023/05/26 10:56:25;;;;;;;33.70;8.95;;;;;;;21.30;49.57;100379.59;5103408;28;20405;-62
2023/05/26 10:58:54;;;;;;;39.20;9.95;;;;;;;20.36;51.64;100382.34;5101159;28;20040;-62
2023/05/26 11:01:30;;;;;;;37.83;9.77;;;;;;;20.70;51.42;100378.94;5096274;28;20462;-62
2023/05/26 11:03:57;;;;;;;49.67;9.65;;;;;;;19.94;52.38;100372.72;5099452;28;20047;-62
2023/05/26 11:06:35;;;;;;;35.90;8.82;;;;;;;20.99;50.38;100378.19;5091063;28;20044;-62
2023/05/26 11:09:03;;;;;;;36.40;9.38;;;;;;;20.10;51.99;100375.41;5075340;28;20279;-61
2023/05/26 11:11:32;;;;;;;34.20;8.00;;;;;;;20.31;51.45;100366.03;5099972;28;20594;-62
2023/05/26 11:14:04;;;;;;;29.20;9.02;;;;;;;18.83;54.69;100383.38;5093070;28;20134;-62
2023/05/26 11:16:36;;;;;;;30.83;8.57;;;;;;;18.45;56.38;100387.31;5092657;28;20040;-62
2023/05/26 11:19:03;;;;;;;44.50;9.15;;;;;;;20.02;53.81;100383.03;5078558;28;20393;-61
2023/05/26 11:21:31;;;;;;;31.98;9.15;;;;;;;20.26;51.88;100376.94;5072218;28;20047;-62
2023/05/26 11:23:59;;;;;;;44.72;9.70;;;;;;;20.42;52.86;100375.00;5090985;28;20531;-62
2023/05/26 11:26:27;;;;;;;39.83;8.98;;;;;;;20.26;53.59;100368.78;5092468;28;20569;-62
2023/05/26 11:28:55;;;;;;;43.42;9.63;;;;;;;20.44;53.78;100368.16;5091586;28;20047;-61